Relevés horaires Melle (Belgique)


Relevés horaires à Melle - Mercredi 07 Oct. 2015
Heure UTC1 Température [°C] Vent [km/h] Hum. [%] Pres.4 [hPa] Visi. [Km] Nébu. [octa] Préc.5 [mm] Cond.
2m. Res. Ros. Dir.2 Vit. Moy. Raf.3
23:00 12.6 12.6 11.7 OSO 5.6 7.4 13.0 94 1017.2(1.0/3h) -- -- -- --
22:00 12.8 12.4 11.8 SO 7.4 9.3 13.0 94 1017(1.5/3h) -- -- -- --
21:00 12.7 12.3 11.7 SO 7.4 9.3 13.0 94 1016.7(2.0/3h) -- -- -- --
20:00 13.0 12.6 11.8 SO 7.4 9.3 13.0 92 1016.2(2.2/3h) -- -- -- --
19:00 13.5 13.2 12.3 SO 7.4 9.3 11.1 92 1015.5(2.2/3h) -- -- -- --
18:00 13.8 13.6 12.5 SO 7.4 11.1 16.7 92 1014.7(2.1/3h) -- -- 2/12h
--
17:00 14.1 13.9 12.8 SO 7.4 9.3 13.0 92 1014(2.0/3h) -- -- -- --
16:00 14.2 14 13.1 SO 7.4 9.3 13.0 93 1013.3(1.9/3h) -- -- -- --
15:00 14.3 14.2 13.1 SSO 7.4 11.1 16.7 92 1012.6(1.6/3h) -- -- -- --
14:00 14.5 14.1 13.3 SSO 9.3 9.3 14.8 93 1012(1.6/3h) -- -- -- --
13:00 14.4 14 13.3 SSO 9.3 11.1 16.7 93 1011.4(1.7/3h) -- -- -- --
12:00 14.5 13.9 13.2 SSO 11.1 13.0 20.4 92 1011(2.0/3h) -- -- 0.6/6h
--
11:00 14.9 14.6 13.1 SO 9.3 13.0 20.4 89 1010.4(2.0/3h) -- -- -- --
10:00 14.9 14.6 13.4 SO 9.3 11.1 20.4 91 1009.7(2.1/3h) -- -- -- --
09:00 15.3 15.3 13.4 SO 7.4 13.0 18.5 88 1009(2.1/3h) -- -- -- --
08:00 14.8 14.5 12.9 SO 9.3 11.1 16.7 88 1008.4(2.3/3h) -- -- -- --
07:00 14.5 14.1 12.4 SSO 9.3 13.0 18.5 87 1007.6(2.0/3h) -- -- -- --
06:00 14.6 14.2 12.2 SSO 9.3 11.1 18.5 86 1006.9(1.8/3h) -- -- 0.8/12h
--
05:00 14.8 14.5 12.5 SSO 9.3 11.1 18.5 86 1006.1(1.5/3h) -- -- -- --
04:00 14.9 14.6 12.5 SSO 9.3 9.3 14.8 86 1005.6(1.3/3h) -- -- -- --
03:00 14.6 14.2 12.4 SSO 9.3 11.1 18.5 87 1005.1(1.2/3h) -- -- -- --
02:00 14.8 14.5 12.4 SSO 9.3 11.1 18.5 86 1004.6(1.1/3h) -- -- -- --
01:00 15.3 15.1 13.1 SSO 9.3 11.1 14.8 87 1004.3(1.2/3h) -- -- -- --
00:00 15.7 15.5 13.5 SSO 9.3 11.1 16.7 87 1003.8(1.0/3h) -- -- 0.8/6h
--

1 Coordinated Universal Time. Actuellement il est 16:00 locale et 14:00 UTC.

2 Le vent souffle depuis la direction indiquée vers la direction oposée.

3 Les rafales max. sont disponible 40 min après l'heure du relevé.

4 Pour les stations d'altitude (plus de 600m) le géopotentiel du niveau le plus proche de la pression obligatoire est indiqué.

5 Les stations disposant d'un diffuseur peuvent indiquer "trace". Cela signifie que des précipitations ont touchés le sol mais que la quantité est inférieure à 0.1 mm.

Récapitulatif de la journée
Température [°C] Vent [km/h] Ensoleillement4 [h] Precipitations totale5 [mm] Pression [Hpa]
Min1 Max.2 Moy.3 Max. Min Max.
14.6 15.7 10.7 20.4 0 h 0 min 0 1003.8 1017.2

1 Température minimale relevée entre 18:00 UTC la veille et 18:00 UTC le jour donné.

2 Température maximale relevée entre 06:00 UTC le jour donné et 06:00 UTC le lendemain.

3 Vent moyen de la journée basé sur les relevés horaires.

4 Ensoleillement en heures relevé entre 06:00 UTC la veille et 06:00 UTC le jour donné.

5 Précipitations totales tombées entre 06:00 UTC la jour donné et 06:00 UTC le lendemain.

Graphiques horaires